createdAt,value
2024-02-20T00:00:13.141Z,88.71
2024-02-20T00:02:42.546Z,88.90
2024-02-20T00:05:11.196Z,88.96
2024-02-20T00:07:39.952Z,89.12
2024-02-20T00:10:09.196Z,89.24
2024-02-20T00:12:39.271Z,89.24
2024-02-20T00:15:08.939Z,89.21
2024-02-20T00:17:37.379Z,89.33
2024-02-20T00:20:07.068Z,89.51
2024-02-20T00:22:36.264Z,89.36
2024-02-20T00:25:05.328Z,89.35
2024-02-20T00:27:33.887Z,89.57
2024-02-20T00:30:05.282Z,89.51
2024-02-20T00:32:33.672Z,88.67
2024-02-20T00:35:02.118Z,88.84
2024-02-20T00:37:31.696Z,89.03
2024-02-20T00:40:00.318Z,88.27
2024-02-20T00:42:29.399Z,88.70
2024-02-20T00:44:57.986Z,87.90
2024-02-20T00:47:28.857Z,87.86
2024-02-20T00:49:57.533Z,87.64
2024-02-20T00:52:26.368Z,87.24
2024-02-20T00:54:54.918Z,87.36
2024-02-20T00:57:23.336Z,87.43
2024-02-20T00:59:52.133Z,87.16
2024-02-20T01:02:20.592Z,87.62
2024-02-20T01:04:50.444Z,87.54
2024-02-20T01:07:18.990Z,87.36
2024-02-20T01:09:47.345Z,87.42
2024-02-20T01:12:15.804Z,87.58
2024-02-20T01:14:45.729Z,87.59
2024-02-20T01:17:14.090Z,87.51
2024-02-20T01:19:42.512Z,87.60
2024-02-20T01:22:13.069Z,87.79
2024-02-20T01:24:41.649Z,87.49
2024-02-20T01:27:10.036Z,87.61
2024-02-20T01:29:38.427Z,86.79
2024-02-20T01:32:07.305Z,87.47
2024-02-20T01:34:35.834Z,86.99
2024-02-20T01:37:04.699Z,87.10
2024-02-20T01:39:34.946Z,87.26
2024-02-20T01:42:04.333Z,86.90
2024-02-20T01:44:33.594Z,87.19
2024-02-20T01:47:02.637Z,87.01
2024-02-20T01:49:31.247Z,87.05
2024-02-20T01:52:01.056Z,86.80
2024-02-20T01:54:29.515Z,87.02
2024-02-20T01:56:59.740Z,87.45
2024-02-20T01:59:28.249Z,87.50
2024-02-20T02:01:56.706Z,87.54
2024-02-20T02:04:25.586Z,87.51
2024-02-20T02:06:54.047Z,87.70
2024-02-20T02:09:22.588Z,87.82
2024-02-20T02:11:50.925Z,87.82
2024-02-20T02:14:20.732Z,87.81
2024-02-20T02:16:49.135Z,88.36
2024-02-20T02:19:17.637Z,87.99
2024-02-20T02:21:46.519Z,88.21
2024-02-20T02:24:14.884Z,88.32
2024-02-20T02:26:44.952Z,88.43
2024-02-20T02:29:13.823Z,88.37
2024-02-20T02:31:42.326Z,88.48
2024-02-20T02:34:10.791Z,88.47
2024-02-20T02:36:39.330Z,88.65
2024-02-20T02:39:09.095Z,88.60
2024-02-20T02:41:37.532Z,88.70
2024-02-20T02:44:08.182Z,88.63
2024-02-20T02:46:36.610Z,88.67
2024-02-20T02:49:06.895Z,88.48
2024-02-20T02:51:35.421Z,88.82
2024-02-20T02:54:04.206Z,88.40
2024-02-20T02:56:32.797Z,88.47
2024-02-20T02:59:01.417Z,88.69
2024-02-20T03:01:31.769Z,88.58
2024-02-20T03:04:01.541Z,88.85
2024-02-20T03:06:30.112Z,88.44
2024-02-20T03:08:58.542Z,88.89
2024-02-20T03:11:26.921Z,88.62
2024-02-20T03:13:55.838Z,88.46
2024-02-20T03:16:25.962Z,88.81
2024-02-20T03:18:55.915Z,89.04
2024-02-20T03:21:25.824Z,88.80
2024-02-20T03:23:54.228Z,88.82
2024-02-20T03:26:22.570Z,89.14
2024-02-20T03:28:51.725Z,89.38
2024-02-20T03:31:20.374Z,89.21
2024-02-20T03:33:49.119Z,89.43
2024-02-20T03:36:19.076Z,89.45
2024-02-20T03:38:48.149Z,89.60
2024-02-20T03:41:17.483Z,89.75
2024-02-20T03:43:45.971Z,89.47
2024-02-20T03:46:14.429Z,89.80
2024-02-20T03:48:43.358Z,89.61
2024-02-20T03:51:12.002Z,89.60
2024-02-20T03:53:41.998Z,89.76
2024-02-20T03:56:13.309Z,89.50
2024-02-20T03:58:41.847Z,89.22
2024-02-20T04:01:11.292Z,89.32
2024-02-20T04:03:39.861Z,89.60
2024-02-20T04:06:09.836Z,89.72
2024-02-20T04:08:38.439Z,89.80
2024-02-20T04:11:08.407Z,89.82
2024-02-20T04:13:36.959Z,89.69
2024-02-20T04:16:06.427Z,89.65
2024-02-20T04:18:35.319Z,89.90
2024-02-20T04:21:03.694Z,90.08
2024-02-20T04:23:32.148Z,89.75
2024-02-20T04:26:00.624Z,90.00
2024-02-20T04:28:36.574Z,90.43
2024-02-20T04:31:05.546Z,89.97
2024-02-20T04:33:34.092Z,89.99
2024-02-20T04:36:02.532Z,90.11
2024-02-20T04:38:30.896Z,90.34
2024-02-20T04:40:59.312Z,90.49
2024-02-20T04:43:27.885Z,90.60
2024-02-20T04:45:57.800Z,90.61
2024-02-20T04:48:26.303Z,90.53
2024-02-20T04:50:55.000Z,90.38
2024-02-20T04:53:23.493Z,90.83
2024-02-20T04:55:51.866Z,90.84
2024-02-20T04:58:20.446Z,90.80
2024-02-20T05:00:49.735Z,90.51
2024-02-20T05:03:19.794Z,90.90
2024-02-20T05:05:48.273Z,90.66
2024-02-20T05:08:16.942Z,90.85
2024-02-20T05:10:45.492Z,90.88
2024-02-20T05:13:13.915Z,90.57
2024-02-20T05:15:42.763Z,90.63
2024-02-20T05:18:11.123Z,90.42
2024-02-20T05:20:40.951Z,90.41
2024-02-20T05:23:09.752Z,90.58
2024-02-20T05:25:38.209Z,90.42
2024-02-20T05:28:06.867Z,90.51
2024-02-20T05:30:35.896Z,90.49
2024-02-20T05:33:04.685Z,90.65
2024-02-20T05:35:35.211Z,90.70
2024-02-20T05:38:07.947Z,90.58
2024-02-20T05:40:36.472Z,90.52
2024-02-20T05:43:04.903Z,90.49
2024-02-20T05:45:34.864Z,90.27
2024-02-20T05:48:03.980Z,90.14
2024-02-20T05:50:33.038Z,90.45
2024-02-20T05:53:08.020Z,90.47
2024-02-20T05:55:37.984Z,90.58
2024-02-20T05:58:06.621Z,90.66
2024-02-20T06:00:35.051Z,90.65
2024-02-20T06:03:03.471Z,90.69
2024-02-20T06:05:32.024Z,90.81
2024-02-20T06:08:01.312Z,90.60
2024-02-20T06:10:29.796Z,90.64
2024-02-20T06:12:59.611Z,90.62
2024-02-20T06:15:28.204Z,90.34
2024-02-20T06:17:56.602Z,90.75
2024-02-20T06:20:25.443Z,90.45
2024-02-20T06:22:53.883Z,90.99
2024-02-20T06:25:22.366Z,91.04
2024-02-20T06:27:51.764Z,91.30
2024-02-20T06:30:23.391Z,91.10
2024-02-20T06:32:54.274Z,90.79
2024-02-20T06:35:22.957Z,90.91
2024-02-20T06:37:51.358Z,90.69
2024-02-20T06:40:19.836Z,90.47
2024-02-20T06:42:48.163Z,90.27
2024-02-20T06:45:16.696Z,90.38
2024-02-20T06:47:46.446Z,90.32
2024-02-20T06:50:14.952Z,90.27
2024-02-20T06:52:44.948Z,89.87
2024-02-20T06:55:13.877Z,89.90
2024-02-20T06:57:42.236Z,90.09
2024-02-20T07:00:13.565Z,90.01
2024-02-20T07:02:43.233Z,89.89
2024-02-20T07:05:13.861Z,89.36
2024-02-20T07:07:42.602Z,89.23
2024-02-20T07:10:11.866Z,89.42
2024-02-20T07:12:40.307Z,89.21
2024-02-20T07:15:08.962Z,89.29
2024-02-20T07:17:38.488Z,89.31
2024-02-20T07:20:08.067Z,88.91
2024-02-20T07:22:38.201Z,89.51
2024-02-20T07:25:07.426Z,89.53
2024-02-20T07:27:35.792Z,89.16
2024-02-20T07:30:04.911Z,88.98
2024-02-20T07:32:33.195Z,88.59
2024-02-20T07:35:01.742Z,89.42
2024-02-20T07:37:30.313Z,89.04
2024-02-20T07:40:00.606Z,89.18
2024-02-20T07:42:29.021Z,87.59
2024-02-20T07:44:57.336Z,87.61
2024-02-20T07:47:26.534Z,86.51
2024-02-20T07:49:55.080Z,86.77
2024-02-20T07:52:24.017Z,86.91
2024-02-20T07:54:52.345Z,85.78
2024-02-20T07:57:22.461Z,85.63
2024-02-20T07:59:50.823Z,85.22
2024-02-20T08:02:19.198Z,85.12
2024-02-20T08:04:47.859Z,85.66
2024-02-20T08:07:16.368Z,85.04
2024-02-20T08:09:45.363Z,85.05
2024-02-20T08:12:13.737Z,84.98
2024-02-20T08:14:46.008Z,85.08
2024-02-20T08:17:15.953Z,85.45
2024-02-20T08:19:44.309Z,85.91
2024-02-20T08:22:14.706Z,85.64
2024-02-20T08:24:46.206Z,85.60
2024-02-20T08:27:15.765Z,85.72
2024-02-20T08:29:45.931Z,85.71
2024-02-20T08:32:14.425Z,85.72
2024-02-20T08:34:42.832Z,85.31
2024-02-20T08:37:11.302Z,85.67
2024-02-20T08:39:39.719Z,84.98
2024-02-20T08:42:08.131Z,85.32
2024-02-20T08:44:36.496Z,85.19
2024-02-20T08:47:06.371Z,84.23
2024-02-20T08:49:34.972Z,84.28
2024-02-20T08:52:04.048Z,84.03
2024-02-20T08:54:32.468Z,83.77
2024-02-20T08:57:00.918Z,82.48
2024-02-20T08:59:29.342Z,81.06
2024-02-20T09:01:58.186Z,80.52
2024-02-20T09:04:29.620Z,79.21
2024-02-20T09:07:00.051Z,79.04
2024-02-20T09:09:28.634Z,78.84
2024-02-20T09:11:59.794Z,78.38
2024-02-20T09:14:30.229Z,78.04
2024-02-20T09:16:58.523Z,77.71
2024-02-20T09:19:28.430Z,77.06
2024-02-20T09:21:57.092Z,76.16
2024-02-20T09:24:25.470Z,75.14
2024-02-20T09:26:53.844Z,75.41
2024-02-20T09:29:23.147Z,74.91
2024-02-20T09:31:54.580Z,74.66
2024-02-20T09:34:24.158Z,74.82
2024-02-20T09:36:54.393Z,75.43
2024-02-20T09:39:23.750Z,75.23
2024-02-20T09:41:52.482Z,74.98
2024-02-20T09:44:22.061Z,75.09
2024-02-20T09:46:54.806Z,75.11
2024-02-20T09:49:25.166Z,74.87
2024-02-20T09:51:55.613Z,74.20
2024-02-20T09:54:25.328Z,74.43
2024-02-20T09:56:57.882Z,74.17
2024-02-20T09:59:26.808Z,74.25
2024-02-20T10:01:55.762Z,73.56
2024-02-20T10:04:25.122Z,73.45
2024-02-20T10:06:55.205Z,71.83
2024-02-20T10:09:24.006Z,71.40
2024-02-20T10:11:52.409Z,70.70
2024-02-20T10:14:28.396Z,71.15
2024-02-20T10:17:00.416Z,70.32
2024-02-20T10:19:29.022Z,69.20
2024-02-20T10:22:01.346Z,69.08
2024-02-20T10:24:38.056Z,68.19
2024-02-20T10:27:07.599Z,67.90
2024-02-20T10:29:35.949Z,68.11
2024-02-20T10:32:04.426Z,66.77
2024-02-20T10:34:32.868Z,67.39
2024-02-20T10:37:08.808Z,67.44
2024-02-20T10:39:37.522Z,67.32
2024-02-20T10:42:08.379Z,68.18
2024-02-20T10:44:37.602Z,68.76
2024-02-20T10:47:07.137Z,68.74
2024-02-20T10:49:36.251Z,68.71
2024-02-20T10:52:05.559Z,68.50
2024-02-20T10:54:43.376Z,67.86
2024-02-20T10:57:16.584Z,67.68
2024-02-20T10:59:45.831Z,67.44
2024-02-20T11:02:15.406Z,67.41
2024-02-20T11:04:44.106Z,67.82
2024-02-20T11:07:12.883Z,68.47
2024-02-20T11:09:42.837Z,69.02
2024-02-20T11:12:11.552Z,69.76
2024-02-20T11:14:40.051Z,70.06
2024-02-20T11:17:24.227Z,69.88
2024-02-20T11:20:06.943Z,70.87
2024-02-20T11:22:35.848Z,70.94
2024-02-20T11:25:12.296Z,70.83
2024-02-20T11:27:44.959Z,71.37
2024-02-20T11:30:18.805Z,71.60
2024-02-20T11:32:47.714Z,71.35
2024-02-20T11:35:23.979Z,70.78
2024-02-20T11:37:55.808Z,70.27
2024-02-20T11:40:27.092Z,69.37
2024-02-20T11:42:57.110Z,68.49
2024-02-20T11:45:27.198Z,67.98
2024-02-20T11:48:02.275Z,67.30
2024-02-20T11:50:31.287Z,66.75
2024-02-20T11:53:04.791Z,66.97
2024-02-20T11:55:35.115Z,67.68
2024-02-20T11:58:05.747Z,67.84
2024-02-20T12:00:35.219Z,68.43
2024-02-20T12:03:03.991Z,68.57
2024-02-20T12:05:38.909Z,69.08
2024-02-20T12:08:13.110Z,69.25
2024-02-20T12:10:43.615Z,69.95
2024-02-20T12:13:15.699Z,70.11
2024-02-20T12:15:45.883Z,70.17
2024-02-20T12:18:24.399Z,70.40
2024-02-20T12:20:52.833Z,70.52
2024-02-20T12:23:21.889Z,70.13
2024-02-20T12:25:51.750Z,70.40
2024-02-20T12:28:20.255Z,70.11
2024-02-20T12:30:50.960Z,69.43
2024-02-20T12:33:19.490Z,68.84
2024-02-20T12:35:47.849Z,68.57
2024-02-20T12:38:16.303Z,68.54
2024-02-20T12:40:44.728Z,68.51
2024-02-20T12:43:15.691Z,68.60
2024-02-20T12:45:44.220Z,68.54
2024-02-20T12:48:12.634Z,68.27
2024-02-20T12:50:41.143Z,68.42
2024-02-20T12:53:09.777Z,68.86
2024-02-20T12:55:39.049Z,69.09
2024-02-20T12:58:07.487Z,69.14
2024-02-20T13:00:37.455Z,69.27
2024-02-20T13:03:07.000Z,69.11
2024-02-20T13:05:35.993Z,69.53
2024-02-20T13:08:05.921Z,69.49
2024-02-20T13:10:35.520Z,69.76
2024-02-20T13:13:04.776Z,69.98
2024-02-20T13:15:34.059Z,70.42
2024-02-20T13:18:04.393Z,70.25
2024-02-20T13:20:35.137Z,70.17
2024-02-20T13:23:04.584Z,70.29
2024-02-20T13:25:33.071Z,70.66
2024-02-20T13:28:01.719Z,70.86
2024-02-20T13:30:30.237Z,70.73
2024-02-20T13:32:58.729Z,71.03
2024-02-20T13:35:28.596Z,70.86
2024-02-20T13:37:57.116Z,70.40
2024-02-20T13:40:25.553Z,70.50
2024-02-20T13:42:56.021Z,70.51
2024-02-20T13:45:25.980Z,70.22
2024-02-20T13:47:54.514Z,70.40
2024-02-20T13:50:23.964Z,70.05
2024-02-20T13:52:54.699Z,70.22
2024-02-20T13:55:23.164Z,70.30
2024-02-20T13:57:51.731Z,70.58
2024-02-20T14:00:20.663Z,70.62
2024-02-20T14:02:48.988Z,70.72
2024-02-20T14:05:18.704Z,70.80
2024-02-20T14:07:47.431Z,70.71
2024-02-20T14:10:18.751Z,70.87
2024-02-20T14:12:47.377Z,70.60
2024-02-20T14:15:14.715Z,70.67
2024-02-20T14:17:43.096Z,70.43
2024-02-20T14:20:12.339Z,70.40
2024-02-20T14:22:40.749Z,70.21
2024-02-20T14:25:09.526Z,69.73
2024-02-20T14:27:39.422Z,69.53
2024-02-20T14:30:08.788Z,69.20
2024-02-20T14:32:37.288Z,69.18
2024-02-20T14:35:06.251Z,68.79
2024-02-20T14:37:36.149Z,69.24
2024-02-20T14:40:06.273Z,69.15
2024-02-20T14:42:34.700Z,68.73
2024-02-20T14:45:06.247Z,68.40
2024-02-20T14:47:34.702Z,68.38
2024-02-20T14:50:03.200Z,68.49
2024-02-20T14:52:31.952Z,68.55
2024-02-20T14:55:00.330Z,68.05
2024-02-20T14:57:28.874Z,68.20
2024-02-20T14:59:57.301Z,68.17
2024-02-20T15:02:27.121Z,68.73
2024-02-20T15:04:55.628Z,68.76
2024-02-20T15:07:24.166Z,68.76
2024-02-20T15:09:52.692Z,69.35
2024-02-20T15:12:22.055Z,69.37
2024-02-20T15:14:50.885Z,69.50
2024-02-20T15:17:20.949Z,69.47
2024-02-20T15:19:52.535Z,69.67
2024-02-20T15:22:21.332Z,69.79
2024-02-20T15:24:49.894Z,69.77
2024-02-20T15:27:19.811Z,70.37
2024-02-20T15:29:48.318Z,70.28
2024-02-20T15:32:17.124Z,70.68
2024-02-20T15:34:46.787Z,71.03
2024-02-20T15:37:16.972Z,71.21
2024-02-20T15:39:45.453Z,72.08
2024-02-20T15:42:13.834Z,72.50
2024-02-20T15:44:44.354Z,73.21
2024-02-20T15:47:13.056Z,73.69
2024-02-20T15:49:44.368Z,73.76
2024-02-20T15:52:13.571Z,74.44
2024-02-20T15:54:43.423Z,74.90
2024-02-20T15:57:11.829Z,75.10
2024-02-20T15:59:40.171Z,75.08
2024-02-20T16:02:08.617Z,75.43
2024-02-20T16:04:37.125Z,75.72
2024-02-20T16:07:05.785Z,75.75
2024-02-20T16:09:34.165Z,75.81
2024-02-20T16:12:04.670Z,75.71
2024-02-20T16:14:34.557Z,76.44
2024-02-20T16:17:03.614Z,76.85
2024-02-20T16:19:32.318Z,76.92
2024-02-20T16:22:00.735Z,77.65
2024-02-20T16:24:29.912Z,78.26
2024-02-20T16:27:00.351Z,78.58
2024-02-20T16:29:31.009Z,79.49
2024-02-20T16:31:59.521Z,80.04
2024-02-20T16:34:27.995Z,79.85
2024-02-20T16:37:00.798Z,80.85
2024-02-20T16:39:29.253Z,80.88
2024-02-20T16:41:57.576Z,81.53
2024-02-20T16:44:25.988Z,81.29
2024-02-20T16:46:55.958Z,81.39
2024-02-20T16:49:24.999Z,82.06
2024-02-20T16:51:54.089Z,82.29
2024-02-20T16:54:22.749Z,82.49
2024-02-20T16:56:51.055Z,82.84
2024-02-20T16:59:21.398Z,83.42
2024-02-20T17:01:50.566Z,83.47
2024-02-20T17:04:25.491Z,83.40
2024-02-20T17:06:54.181Z,83.82
2024-02-20T17:09:22.576Z,84.09
2024-02-20T17:11:52.086Z,84.24
2024-02-20T17:14:20.839Z,84.49
2024-02-20T17:16:52.420Z,84.80
2024-02-20T17:19:22.631Z,85.62
2024-02-20T17:21:51.157Z,85.93
2024-02-20T17:24:19.456Z,85.70
2024-02-20T17:26:50.304Z,85.66
2024-02-20T17:29:20.133Z,86.05
2024-02-20T17:31:48.745Z,86.23
2024-02-20T17:34:17.246Z,86.29
2024-02-20T17:36:47.358Z,86.17
2024-02-20T17:39:16.334Z,86.99
2024-02-20T17:41:44.820Z,86.62
2024-02-20T17:44:13.348Z,86.75
2024-02-20T17:46:41.806Z,87.12
2024-02-20T17:49:11.121Z,87.11
2024-02-20T17:51:42.250Z,86.98
2024-02-20T17:54:14.007Z,87.38
2024-02-20T17:56:46.708Z,87.15
2024-02-20T17:59:15.889Z,87.07
2024-02-20T18:01:45.222Z,87.74
2024-02-20T18:04:14.132Z,87.39
2024-02-20T18:06:43.064Z,87.49
2024-02-20T18:09:13.558Z,87.81
2024-02-20T18:11:42.310Z,87.45
2024-02-20T18:14:14.075Z,87.63
2024-02-20T18:16:43.345Z,87.38
2024-02-20T18:19:15.406Z,87.25
2024-02-20T18:21:44.391Z,87.46
2024-02-20T18:24:17.667Z,87.83
2024-02-20T18:26:46.410Z,87.55
2024-02-20T18:29:20.409Z,87.67
2024-02-20T18:31:49.354Z,87.17
2024-02-20T18:34:18.237Z,87.60
2024-02-20T18:36:47.096Z,87.98
2024-02-20T18:39:16.125Z,87.70
2024-02-20T18:41:49.967Z,87.08
2024-02-20T18:44:18.876Z,87.67
2024-02-20T18:46:47.846Z,87.08
2024-02-20T18:49:16.852Z,87.47
2024-02-20T18:51:45.689Z,87.46
2024-02-20T18:54:14.681Z,87.62
2024-02-20T18:56:43.354Z,87.04
2024-02-20T18:59:13.501Z,87.46
2024-02-20T19:01:42.480Z,87.50
2024-02-20T19:04:11.471Z,87.81
2024-02-20T19:06:43.330Z,87.77
2024-02-20T19:09:13.406Z,87.22
2024-02-20T19:11:44.940Z,87.66
2024-02-20T19:14:16.686Z,88.09
2024-02-20T19:16:45.701Z,87.77
2024-02-20T19:19:14.870Z,88.17
2024-02-20T19:21:43.645Z,88.48
2024-02-20T19:24:12.859Z,88.53
2024-02-20T19:26:42.605Z,88.22
2024-02-20T19:29:11.532Z,87.81
2024-02-20T19:31:41.816Z,88.10
2024-02-20T19:34:10.570Z,88.43
2024-02-20T19:36:40.235Z,87.67
2024-02-20T19:39:10.001Z,88.32
2024-02-20T19:41:40.262Z,87.80
2024-02-20T19:44:09.325Z,88.01
2024-02-20T19:46:38.623Z,87.57
2024-02-20T19:49:08.874Z,87.10
2024-02-20T19:51:37.902Z,87.17
2024-02-20T19:54:06.291Z,87.30
2024-02-20T19:56:39.896Z,87.31
2024-02-20T19:59:08.293Z,87.32
2024-02-20T20:01:39.671Z,86.90
2024-02-20T20:04:09.535Z,87.52
2024-02-20T20:06:42.366Z,87.72
2024-02-20T20:09:13.436Z,87.88
2024-02-20T20:11:41.948Z,87.35
2024-02-20T20:14:10.618Z,87.62
2024-02-20T20:16:39.569Z,87.87
2024-02-20T20:19:10.149Z,87.69
2024-02-20T20:21:39.014Z,87.06
2024-02-20T20:24:14.576Z,87.24
2024-02-20T20:26:46.970Z,87.54
2024-02-20T20:29:15.600Z,86.51
2024-02-20T20:31:44.520Z,87.11
2024-02-20T20:34:14.484Z,86.93
2024-02-20T20:36:44.792Z,86.86
2024-02-20T20:39:13.341Z,86.28
2024-02-20T20:41:42.405Z,86.53
2024-02-20T20:44:11.057Z,86.02
2024-02-20T20:46:39.670Z,86.51
2024-02-20T20:49:08.595Z,86.69
2024-02-20T20:51:38.395Z,86.68
2024-02-20T20:54:07.049Z,86.30
2024-02-20T20:56:35.421Z,86.52
2024-02-20T20:59:04.258Z,86.57
2024-02-20T21:01:33.371Z,86.80
2024-02-20T21:04:04.574Z,86.21
2024-02-20T21:06:34.983Z,86.41
2024-02-20T21:09:04.909Z,86.54
2024-02-20T21:11:35.186Z,86.80
2024-02-20T21:14:03.826Z,87.08
2024-02-20T21:16:33.794Z,86.87
2024-02-20T21:19:02.417Z,86.94
2024-02-20T21:21:30.816Z,87.74
2024-02-20T21:24:01.399Z,87.39
2024-02-20T21:26:31.212Z,87.92
2024-02-20T21:28:59.620Z,88.14
2024-02-20T21:31:28.062Z,87.99
2024-02-20T21:33:56.573Z,88.20
2024-02-20T21:36:25.099Z,88.15
2024-02-20T21:38:53.439Z,88.59
2024-02-20T21:41:21.854Z,87.35
2024-02-20T21:43:51.858Z,87.86
2024-02-20T21:46:20.515Z,87.78
2024-02-20T21:48:50.722Z,87.38
2024-02-20T21:51:19.484Z,87.05
2024-02-20T21:53:47.958Z,86.97
2024-02-20T21:56:17.192Z,87.70
2024-02-20T21:58:46.224Z,86.89
2024-02-20T22:01:16.650Z,86.84
2024-02-20T22:03:45.842Z,86.22
2024-02-20T22:06:14.213Z,86.31
2024-02-20T22:08:42.739Z,86.15
2024-02-20T22:11:11.200Z,85.99
2024-02-20T22:13:40.869Z,85.72
2024-02-20T22:16:09.460Z,86.93
2024-02-20T22:18:39.849Z,86.08
2024-02-20T22:21:08.314Z,86.19
2024-02-20T22:23:36.700Z,86.47
2024-02-20T22:26:06.357Z,86.71
2024-02-20T22:28:37.370Z,86.95
2024-02-20T22:31:05.996Z,86.38
2024-02-20T22:33:34.441Z,86.54
2024-02-20T22:36:04.497Z,87.28
2024-02-20T22:38:34.302Z,87.00
2024-02-20T22:41:02.792Z,87.34
2024-02-20T22:43:31.339Z,87.50
2024-02-20T22:45:59.811Z,87.29
2024-02-20T22:48:28.342Z,87.84
2024-02-20T22:50:56.690Z,88.37
2024-02-20T22:53:28.274Z,88.23
2024-02-20T22:55:57.162Z,88.39
2024-02-20T22:58:25.631Z,88.34
2024-02-20T23:00:54.528Z,88.79
2024-02-20T23:03:22.880Z,87.94
2024-02-20T23:05:51.630Z,88.97
2024-02-20T23:08:20.098Z,88.60
2024-02-20T23:10:50.195Z,87.81
2024-02-20T23:13:18.786Z,87.90
2024-02-20T23:15:47.250Z,88.12
2024-02-20T23:18:15.739Z,88.44
2024-02-20T23:20:44.095Z,88.39
2024-02-20T23:23:12.571Z,87.51
2024-02-20T23:25:41.349Z,87.58
2024-02-20T23:28:11.344Z,87.37
2024-02-20T23:30:39.747Z,86.78
2024-02-20T23:33:08.311Z,86.52
2024-02-20T23:35:36.641Z,86.58
2024-02-20T23:38:05.246Z,86.69
2024-02-20T23:40:33.559Z,86.29
2024-02-20T23:43:02.160Z,85.90
2024-02-20T23:45:31.878Z,86.04
2024-02-20T23:48:00.589Z,85.67
2024-02-20T23:50:29.026Z,84.88
2024-02-20T23:52:57.655Z,85.15
2024-02-20T23:55:26.028Z,84.86
2024-02-20T23:57:54.456Z,84.60
